Time;durP1;ratioP1;P1;durP2;ratioP2;P2;SDS_P1;SDS_P2;PMS_P1;PMS_P2;Temp;Humidity;BMP_temperature;BMP_pressure;BME280_temperature;BME280_humidity;BME280_pressure;Samples;Min_cycle;Max_cycle;Signal;HPM_P1;HPM_P2
2021/01/31 00:01:27;;;;;;;67.63;35.58;;;154.00;2252.80;;;;;;5119487;27;20016;-70
2021/01/31 00:03:56;;;;;;;62.78;34.05;;;154.00;2252.80;;;;;;5114621;28;20011;-72
2021/01/31 00:06:22;;;;;;;69.55;37.28;;;154.00;2252.80;;;;;;5114534;28;20472;-71
2021/01/31 00:08:47;;;;;;;70.82;38.33;;;153.90;2252.80;;;;;;5116563;27;20040;-71
2021/01/31 00:11:13;;;;;;;74.15;38.03;;;154.00;2252.80;;;;;;5117508;27;20027;-71
2021/01/31 00:13:38;;;;;;;68.07;37.45;;;154.00;2252.80;;;;;;5107016;28;20039;-71
2021/01/31 00:16:04;;;;;;;70.78;38.58;;;154.00;2252.80;;;;;;5114320;28;20432;-71
2021/01/31 00:18:30;;;;;;;65.78;35.05;;;154.00;2252.80;;;;;;5113956;28;20099;-71
2021/01/31 00:20:57;;;;;;;67.80;36.03;;;154.10;2252.80;;;;;;5099122;28;20030;-70
2021/01/31 00:23:23;;;;;;;66.60;34.53;;;154.10;2252.80;;;;;;5113753;28;20030;-71
2021/01/31 00:25:51;;;;;;;73.53;38.65;;;154.10;2252.80;;;;;;5113964;28;20020;-74
2021/01/31 00:28:18;;;;;;;75.28;38.85;;;154.00;2252.80;;;;;;5113579;28;20016;-73
2021/01/31 00:30:45;;;;;;;87.55;44.75;;;154.00;2252.80;;;;;;5113366;28;20028;-73
2021/01/31 00:33:14;;;;;;;82.57;42.78;;;153.90;2252.80;;;;;;5085940;28;20452;-71
2021/01/31 00:35:40;;;;;;;74.45;38.15;;;153.90;2252.80;;;;;;5082013;28;20019;-72
2021/01/31 00:38:07;;;;;;;76.03;37.67;;;153.90;2252.80;;;;;;5096688;28;20536;-73
2021/01/31 00:40:32;;;;;;;74.47;37.88;;;153.90;2252.80;;;;;;5096417;28;20072;-73
2021/01/31 00:43:04;;;;;;;87.25;44.53;;;153.90;2252.80;;;;;;5113545;28;20020;-72
2021/01/31 00:45:30;;;;;;;76.47;39.55;;;153.80;2252.80;;;;;;5097586;28;20016;-73
2021/01/31 00:47:55;;;;;;;86.40;43.17;;;153.80;2252.80;;;;;;5080597;27;20069;-73
2021/01/31 00:50:24;;;;;;;92.68;45.30;;;153.80;2252.80;;;;;;5118383;27;20085;-72
2021/01/31 00:52:49;;;;;;;102.05;48.45;;;153.70;2252.80;;;;;;5108899;27;20063;-72
2021/01/31 00:55:15;;;;;;;81.30;42.03;;;153.70;2252.80;;;;;;5102950;27;20047;-73
2021/01/31 00:57:41;;;;;;;82.00;39.80;;;153.70;2252.80;;;;;;5106006;27;20035;-73
2021/01/31 01:00:19;;;;;;;76.55;40.85;;;153.70;2252.80;;;;;;5097988;27;20479;-72
2021/01/31 01:02:45;;;;;;;83.68;42.50;;;153.70;2252.80;;;;;;5097650;28;20028;-71
2021/01/31 01:05:11;;;;;;;81.55;42.30;;;153.60;2252.80;;;;;;5073686;28;20103;-72
2021/01/31 01:07:37;;;;;;;81.93;40.83;;;153.60;2252.80;;;;;;5091825;28;20426;-72
2021/01/31 01:10:04;;;;;;;80.82;41.60;;;153.60;2252.80;;;;;;5109644;28;20030;-71
2021/01/31 01:12:30;;;;;;;73.85;39.42;;;128.90;2252.80;;;;;;5111522;28;20110;-72
2021/01/31 01:14:56;;;;;;;68.22;36.67;;;153.60;2252.80;;;;;;5113116;28;20353;-72
2021/01/31 01:17:21;;;;;;;69.57;36.72;;;128.90;2252.80;;;;;;5113394;28;20384;-72
2021/01/31 01:19:47;;;;;;;73.60;38.95;;;128.90;2252.80;;;;;;5111863;28;20095;-72
2021/01/31 01:22:13;;;;;;;79.95;39.47;;;128.90;2252.80;;;;;;5092614;28;20076;-72
2021/01/31 01:24:39;;;;;;;72.78;38.17;;;128.90;2252.80;;;;;;5112838;28;20030;-71
2021/01/31 01:27:04;;;;;;;73.90;38.88;;;128.80;2252.80;;;;;;5112465;27;20030;-72
2021/01/31 01:29:30;;;;;;;74.90;38.17;;;128.80;2252.80;;;;;;5114174;27;20061;-72
2021/01/31 01:31:59;;;;;;;72.85;39.20;;;128.70;2252.80;;;;;;5106124;28;20083;-72
2021/01/31 01:34:24;;;;;;;61.70;34.58;;;128.70;2252.80;;;;;;5083648;28;20028;-72
2021/01/31 01:36:50;;;;;;;82.05;43.28;;;128.70;2252.80;;;;;;5114534;27;20356;-73
2021/01/31 01:39:16;;;;;;;64.75;36.65;;;128.60;2252.80;;;;;;5112390;28;20479;-72
2021/01/31 01:41:45;;;;;;;64.15;35.33;;;128.60;2252.80;;;;;;5118084;27;20030;-72
2021/01/31 01:44:11;;;;;;;79.50;40.55;;;128.70;2252.80;;;;;;5117421;27;20019;-72
2021/01/31 01:46:43;;;;;;;56.47;31.02;;;128.60;2252.80;;;;;;5116058;27;20476;-71
2021/01/31 01:49:21;;;;;;;55.75;30.17;;;128.60;2252.80;;;;;;5111266;28;20062;-73
2021/01/31 01:52:04;;;;;;;50.80;28.20;;;128.60;2252.80;;;;;;5111432;28;20391;-72
2021/01/31 01:54:32;;;;;;;49.40;27.15;;;128.60;2252.80;;;;;;5111134;28;20027;-73
2021/01/31 01:57:00;;;;;;;64.38;32.10;;;128.50;2252.80;;;;;;5112307;28;20032;-73
2021/01/31 01:59:28;;;;;;;58.65;30.08;;;128.60;2252.80;;;;;;5111994;28;20504;-73
2021/01/31 02:02:08;;;;;;;62.53;31.08;;;128.70;2252.80;;;;;;5086915;28;20032;-73
2021/01/31 02:04:34;;;;;;;45.45;26.73;;;128.70;2252.80;;;;;;5094424;28;20019;-71
2021/01/31 02:07:03;;;;;;;54.65;31.23;;;128.70;2252.80;;;;;;5094362;28;20023;-73
2021/01/31 02:09:35;;;;;;;39.97;22.40;;;128.70;2252.80;;;;;;5112267;28;20425;-71
2021/01/31 02:12:06;;;;;;;53.50;29.42;;;128.70;2252.80;;;;;;5112456;28;20035;-73
2021/01/31 02:14:38;;;;;;;44.75;24.67;;;128.70;2252.80;;;;;;5111157;28;20030;-72
2021/01/31 02:17:21;;;;;;;47.10;26.67;;;128.60;2252.80;;;;;;5111176;28;20425;-73
2021/01/31 02:20:26;;;;;;;55.13;29.38;;;128.50;2252.80;;;;;;5094683;28;20032;-71
2021/01/31 02:23:13;;;;;;;53.22;28.05;;;128.50;2252.80;;;;;;5111086;28;20410;-72
2021/01/31 02:26:01;;;;;;;48.63;26.80;;;128.50;2252.80;;;;;;5111971;28;20020;-73
2021/01/31 02:28:33;;;;;;;60.70;32.92;;;128.50;2252.80;;;;;;5104516;28;20388;-75
2021/01/31 02:31:35;;;;;;;70.70;37.80;;;128.40;2252.80;;;;;;5111834;28;20034;-72
2021/01/31 02:34:12;;;;;;;78.75;39.00;;;128.40;2252.80;;;;;;5112321;28;20430;-72
2021/01/31 02:37:08;;;;;;;61.42;30.40;;;128.30;2252.80;;;;;;5110284;28;20031;-73
2021/01/31 02:40:08;;;;;;;57.10;29.05;;;128.40;2252.80;;;;;;5098768;28;20020;-71
2021/01/31 02:43:09;;;;;;;71.25;33.85;;;128.40;2252.80;;;;;;5111792;28;20048;-72
2021/01/31 02:45:47;;;;;;;80.18;38.78;;;128.40;2252.80;;;;;;5111849;28;20547;-73
2021/01/31 02:48:41;;;;;;;74.68;35.38;;;128.30;2252.80;;;;;;5108231;28;20062;-73
2021/01/31 02:51:10;;;;;;;79.65;38.20;;;128.20;2252.80;;;;;;5094730;28;20031;-74
2021/01/31 02:53:41;;;;;;;73.22;36.17;;;128.30;2252.80;;;;;;5093338;28;20399;-71
2021/01/31 02:56:36;;;;;;;73.35;34.92;;;128.20;2252.80;;;;;;5120105;28;20034;-77
2021/01/31 02:59:08;;;;;;;65.80;31.02;;;128.30;2252.80;;;;;;5093829;28;20044;-72
2021/01/31 03:01:38;;;;;;;56.53;28.77;;;128.40;2252.80;;;;;;5113812;28;20084;-72
2021/01/31 03:04:15;;;;;;;60.88;30.58;;;128.40;2252.80;;;;;;5099905;28;20072;-72
2021/01/31 03:07:06;;;;;;;53.97;29.55;;;128.40;2252.80;;;;;;5093600;28;20024;-72
2021/01/31 03:09:34;;;;;;;59.75;30.77;;;128.40;2252.80;;;;;;5099707;28;20039;-71
2021/01/31 03:12:35;;;;;;;56.20;31.25;;;128.40;2252.80;;;;;;5114692;28;20028;-72
2021/01/31 03:15:24;;;;;;;54.05;29.15;;;128.30;2252.80;;;;;;5086290;28;20067;-73
2021/01/31 03:19:02;;;;;;;57.38;31.73;;;128.30;2252.80;;;;;;5092220;28;20027;-72
2021/01/31 03:21:29;;;;;;;50.20;26.98;;;128.30;2252.80;;;;;;5025396;28;20872;-72
2021/01/31 03:24:09;;;;;;;54.70;27.25;;;128.20;2252.80;;;;;;4996600;28;20466;-72
2021/01/31 03:26:44;;;;;;;60.20;30.77;;;128.30;2252.80;;;;;;5093952;28;20100;-73
2021/01/31 03:29:10;;;;;;;54.75;29.17;;;128.20;2252.80;;;;;;5121105;27;20094;-73
2021/01/31 03:31:38;;;;;;;49.30;26.20;;;128.30;2252.80;;;;;;5103584;27;20110;-73
2021/01/31 03:34:19;;;;;;;43.10;20.67;;;128.30;2252.80;;;;;;5080504;28;20034;-72
2021/01/31 03:36:53;;;;;;;43.30;21.98;;;128.30;2252.80;;;;;;5080346;28;20034;-73
2021/01/31 03:39:32;;;;;;;24.85;13.80;;;128.30;2252.80;;;;;;5096713;28;20030;-75
2021/01/31 03:42:07;;;;;;;28.83;16.08;;;128.40;2252.80;;;;;;5120328;27;20075;-72
2021/01/31 03:44:33;;;;;;;22.17;12.60;;;128.40;2252.80;;;;;;5124759;27;20051;-71
2021/01/31 03:47:01;;;;;;;27.77;15.95;;;128.50;2252.80;;;;;;5096506;28;20055;-73
2021/01/31 03:49:28;;;;;;;68.18;32.17;;;128.50;2252.80;;;;;;5096526;28;20060;-73
2021/01/31 03:51:57;;;;;;;101.43;44.38;;;128.40;2252.80;;;;;;5096452;28;20026;-73
2021/01/31 03:54:22;;;;;;;74.30;33.47;;;128.40;2252.80;;;;;;5120766;27;20505;-72
2021/01/31 03:57:05;;;;;;;45.50;23.23;;;128.30;2252.80;;;;;;5096661;28;20059;-72
2021/01/31 03:59:40;;;;;;;45.65;23.38;;;128.40;2252.80;;;;;;5083071;28;20042;-73
2021/01/31 04:02:05;;;;;;;54.63;27.50;;;128.40;2252.80;;;;;;5096206;28;20035;-72
2021/01/31 04:04:57;;;;;;;51.78;25.15;;;128.30;2252.80;;;;;;5110511;28;20055;-71
2021/01/31 04:07:34;;;;;;;81.28;35.17;;;128.30;2252.80;;;;;;5092500;28;20035;-73
2021/01/31 04:10:01;;;;;;;46.35;24.20;;;128.30;2252.80;;;;;;5096772;28;20071;-72
2021/01/31 04:12:35;;;;;;;37.13;20.42;;;128.20;2252.80;;;;;;5113108;28;20050;-72
2021/01/31 04:15:05;;;;;;;41.03;21.75;;;128.10;2252.80;;;;;;5113224;28;20023;-72
2021/01/31 04:17:30;;;;;;;57.22;28.25;;;128.10;2252.80;;;;;;5112749;28;20028;-73
2021/01/31 04:19:56;;;;;;;43.13;21.75;;;128.10;2252.80;;;;;;5095729;28;20027;-75
2021/01/31 04:22:21;;;;;;;32.35;18.67;;;128.20;2252.80;;;;;;5114267;28;20437;-73
2021/01/31 04:24:47;;;;;;;32.40;18.15;;;128.20;2252.80;;;;;;5114179;28;20026;-71
2021/01/31 04:27:16;;;;;;;25.88;15.15;;;128.20;2252.80;;;;;;5114252;28;20027;-72
2021/01/31 04:29:45;;;;;;;26.10;14.70;;;128.20;2252.80;;;;;;5113903;28;20023;-72
2021/01/31 04:32:12;;;;;;;26.48;15.45;;;128.30;2252.80;;;;;;5114178;27;20368;-72
2021/01/31 04:34:38;;;;;;;29.92;16.67;;;128.40;2252.80;;;;;;5117457;27;20022;-72
2021/01/31 04:37:04;;;;;;;37.53;19.33;;;128.30;2252.80;;;;;;5111828;28;20019;-72
2021/01/31 04:39:29;;;;;;;192.77;68.55;;;128.30;2252.80;;;;;;5113898;28;20489;-72
2021/01/31 04:41:55;;;;;;;124.15;48.70;;;128.20;2252.80;;;;;;5110674;28;20112;-71
2021/01/31 04:44:21;;;;;;;130.32;46.97;;;128.20;2252.80;;;;;;5078866;28;20034;-71
2021/01/31 04:46:58;;;;;;;47.10;25.23;;;128.30;2252.80;;;;;;5078571;28;20480;-73
2021/01/31 04:49:57;;;;;;;32.83;17.55;;;128.40;2252.80;;;;;;5111674;28;20019;-73
2021/01/31 04:53:00;;;;;;;69.07;32.70;;;128.50;2252.80;;;;;;5112882;27;20019;-71
2021/01/31 04:55:54;;;;;;;33.78;17.23;;;128.60;2252.80;;;;;;5116268;27;20028;-75
2021/01/31 04:58:39;;;;;;;28.27;15.68;;;128.60;2252.80;;;;;;5112675;27;20028;-72
2021/01/31 05:01:27;;;;;;;64.90;29.00;;;128.70;2252.80;;;;;;5080862;28;20460;-76
2021/01/31 05:04:00;;;;;;;38.58;19.88;;;128.70;2252.80;;;;;;5077129;28;20111;-72
2021/01/31 05:06:27;;;;;;;38.40;19.50;;;128.60;2252.80;;;;;;5092805;28;20422;-71
2021/01/31 05:08:53;;;;;;;38.72;20.40;;;128.70;2252.80;;;;;;5096175;28;20441;-73
2021/01/31 05:11:21;;;;;;;214.35;66.93;;;128.80;2252.80;;;;;;5113248;28;20119;-75
2021/01/31 05:14:09;;;;;;;129.18;47.13;;;128.70;2252.80;;;;;;5113620;27;20031;-72
2021/01/31 05:16:41;;;;;;;55.58;25.20;;;128.70;2252.80;;;;;;5095583;27;20015;-72
2021/01/31 05:19:10;;;;;;;120.07;47.83;;;128.80;2252.80;;;;;;5115022;27;20031;-71
2021/01/31 05:21:35;;;;;;;342.77;116.75;;;128.80;2252.80;;;;;;5079878;28;20100;-71
2021/01/31 05:24:06;;;;;;;365.23;124.70;;;128.80;2252.80;;;;;;5112915;28;20047;-72
2021/01/31 05:26:34;;;;;;;;;;;128.90;2252.80;;;;;;5078322;27;20413;-72
2021/01/31 05:29:02;;;;;;;88.55;36.35;;;128.90;2252.80;;;;;;5097222;27;19956;-72
2021/01/31 05:31:35;;;;;;;122.47;47.97;;;128.90;2252.80;;;;;;5079278;28;20490;-71
2021/01/31 05:34:01;;;;;;;219.60;78.25;;;128.90;2252.80;;;;;;5094692;28;20026;-72
2021/01/31 05:36:31;;;;;;;81.50;34.22;;;153.60;2252.80;;;;;;5095111;28;20094;-72
2021/01/31 05:38:57;;;;;;;61.60;27.45;;;153.60;2252.80;;;;;;5117368;27;20074;-72
2021/01/31 05:41:45;;;;;;;65.60;31.08;;;153.70;2252.80;;;;;;5095536;28;20476;-71
2021/01/31 05:44:24;;;;;;;153.98;53.17;;;153.70;2252.80;;;;;;5078831;28;20426;-72
2021/01/31 05:47:24;;;;;;;146.75;54.60;;;153.70;2252.80;;;;;;5079044;28;20044;-71
2021/01/31 05:49:52;;;;;;;180.17;68.87;;;153.70;2252.80;;;;;;5093628;28;20027;-71
2021/01/31 05:52:21;;;;;;;92.43;43.08;;;153.60;2252.80;;;;;;5078997;28;20019;-72
2021/01/31 05:54:51;;;;;;;140.43;56.40;;;153.60;2252.80;;;;;;5113353;28;20040;-72
2021/01/31 05:57:35;;;;;;;155.48;61.83;;;153.70;2252.80;;;;;;5156234;22;20111;-71
2021/01/31 06:00:17;;;;;;;258.42;91.57;;;153.70;2252.80;;;;;;5094365;28;20046;-72
2021/01/31 06:03:03;;;;;;;102.50;43.42;;;153.70;2252.80;;;;;;5095395;28;20508;-72
2021/01/31 06:05:29;;;;;;;126.65;59.22;;;153.80;2252.80;;;;;;5072882;28;20040;-72
2021/01/31 06:08:02;;;;;;;183.32;75.13;;;153.80;2252.80;;;;;;5075663;28;20236;-71
2021/01/31 06:10:27;;;;;;;108.82;49.72;;;153.80;2252.80;;;;;;5066952;28;20027;-72
2021/01/31 06:13:02;;;;;;;96.68;44.00;;;153.90;2252.80;;;;;;5073589;28;20388;-71
2021/01/31 06:15:38;;;;;;;96.20;43.17;;;153.90;2252.80;;;;;;5073959;28;20396;-71
2021/01/31 06:18:25;;;;;;;133.35;62.15;;;154.00;2252.80;;;;;;5073833;28;20478;-72
2021/01/31 06:20:51;;;;;;;108.57;53.30;;;154.00;2252.80;;;;;;5074870;28;20494;-72
2021/01/31 06:23:31;;;;;;;95.75;51.33;;;154.00;2252.80;;;;;;5093179;28;20108;-73
2021/01/31 06:25:57;;;;;;;145.45;63.40;;;154.00;2252.80;;;;;;5078365;28;20071;-72
2021/01/31 06:28:26;;;;;;;91.43;43.47;;;154.10;2252.80;;;;;;5075516;28;20056;-72
2021/01/31 06:31:09;;;;;;;84.93;40.97;;;154.10;2252.80;;;;;;5059252;28;20380;-72
2021/01/31 06:33:35;;;;;;;76.47;38.92;;;154.10;2252.80;;;;;;5056261;28;20029;-71
2021/01/31 06:36:27;;;;;;;77.05;39.38;;;154.10;2252.80;;;;;;5040502;28;20033;-72
2021/01/31 06:39:10;;;;;;;87.10;46.33;;;154.20;2252.80;;;;;;5087839;28;20067;-72
2021/01/31 06:41:48;;;;;;;91.63;47.80;;;154.30;2252.80;;;;;;5080177;28;20012;-72
2021/01/31 06:44:45;;;;;;;52.83;29.60;;;154.40;2252.80;;;;;;5076680;28;20073;-71
2021/01/31 06:47:19;;;;;;;37.67;21.98;;;154.40;2252.80;;;;;;5090618;28;20024;-72
2021/01/31 06:50:11;;;;;;;97.30;48.88;;;154.50;2252.80;;;;;;5095524;28;20039;-71
2021/01/31 06:52:55;;;;;;;82.97;44.17;;;154.50;2252.80;;;;;;5046150;28;20135;-71
2021/01/31 06:55:33;;;;;;;82.88;44.00;;;154.50;2252.80;;;;;;5084276;28;20403;-71
2021/01/31 06:58:29;;;;;;;70.85;37.67;;;154.50;2252.80;;;;;;5069404;28;20036;-72
2021/01/31 07:01:29;;;;;;;42.83;25.38;;;179.20;2252.80;;;;;;5081185;28;20028;-72
2021/01/31 07:04:18;;;;;;;38.92;23.02;;;179.30;2252.80;;;;;;5073046;28;20541;-79
2021/01/31 07:06:55;;;;;;;35.30;21.48;;;179.40;2252.80;;;;;;5065032;28;20032;-76
2021/01/31 07:09:27;;;;;;;41.67;26.50;;;179.40;2252.80;;;;;;5071674;28;20034;-73
2021/01/31 07:12:12;;;;;;;27.90;17.27;;;179.50;2252.80;;;;;;5071006;28;20024;-75
2021/01/31 07:14:46;;;;;;;29.17;17.45;;;179.60;2252.80;;;;;;5079898;28;20031;-74
2021/01/31 07:17:32;;;;;;;58.17;31.02;;;179.70;2252.80;;;;;;5053775;28;20025;-76
2021/01/31 07:20:23;;;;;;;61.38;31.40;;;179.70;2252.80;;;;;;5071736;28;20469;-71
2021/01/31 07:23:11;;;;;;;69.22;32.97;;;179.70;2252.80;;;;;;5071100;28;20029;-72
2021/01/31 07:25:47;;;;;;;131.80;49.20;;;179.70;2252.80;;;;;;5076980;28;20066;-72
2021/01/31 07:28:30;;;;;;;131.05;52.75;;;179.80;2252.80;;;;;;5069508;28;20023;-72
2021/01/31 07:31:14;;;;;;;113.25;46.90;;;179.80;2252.80;;;;;;5053600;28;20039;-73
2021/01/31 07:33:53;;;;;;;172.18;71.30;;;179.90;2252.80;;;;;;5069353;28;20025;-72
2021/01/31 07:36:21;;;;;;;164.90;69.22;;;180.00;2252.80;;;;;;5053747;28;20035;-73
2021/01/31 07:39:02;;;;;;;163.75;70.05;;;180.00;2252.80;;;;;;5070489;28;20024;-71
2021/01/31 07:41:28;;;;;;;272.10;124.38;;;180.00;2252.80;;;;;;5071026;28;20024;-72
2021/01/31 07:44:05;;;;;;;176.65;76.32;;;180.10;2252.80;;;;;;5069590;28;20385;-72
2021/01/31 07:46:30;;;;;;;181.15;76.90;;;180.10;2252.80;;;;;;5054006;28;20035;-73
2021/01/31 07:49:00;;;;;;;123.10;57.85;;;180.00;2252.80;;;;;;5052201;28;20024;-73
2021/01/31 07:51:26;;;;;;;65.47;35.72;;;180.10;2252.80;;;;;;5070308;28;20100;-73
2021/01/31 07:53:58;;;;;;;34.85;21.63;;;180.00;2252.80;;;;;;5072181;28;20150;-72
2021/01/31 07:56:26;;;;;;;63.60;33.17;;;180.10;2252.80;;;;;;5073165;28;20456;-72
2021/01/31 07:58:56;;;;;;;104.45;51.63;;;180.10;2252.80;;;;;;5087122;28;20412;-72
2021/01/31 08:01:40;;;;;;;34.65;20.55;;;204.90;2252.80;;;;;;5097138;28;20084;-73
2021/01/31 08:04:27;;;;;;;31.60;17.02;;;205.10;2252.80;;;;;;5094139;28;20500;-72
2021/01/31 08:06:58;;;;;;;26.98;17.33;;;205.40;2252.80;;;;;;5076976;28;20081;-73
2021/01/31 08:09:23;;;;;;;;;;;205.70;2252.80;;;;;;5094549;28;20028;-74
2021/01/31 08:11:49;;;;;;;53.67;35.42;;;230.50;2201.60;;;;;;5094118;28;19911;-72
2021/01/31 08:14:53;;;;;;;46.60;29.67;;;230.70;2176.00;;;;;;5094013;28;20488;-72
2021/01/31 08:17:37;;;;;;;100.07;53.75;;;231.00;2150.40;;;;;;5093156;28;20040;-72
2021/01/31 08:20:31;;;;;;;95.22;49.08;;;231.30;2099.20;;;;;;5098366;28;20030;-74
2021/01/31 08:22:58;;;;;;;122.90;63.28;;;256.30;2048.00;;;;;;5098584;28;20106;-73
2021/01/31 08:25:33;;;;;;;94.78;51.92;;;256.70;1971.20;;;;;;5078881;28;20069;-72
2021/01/31 08:28:08;;;;;;;52.08;34.72;;;281.70;1971.20;;;;;;5075320;28;20016;-72
2021/01/31 08:30:41;;;;;;;23.75;16.10;;;282.00;1971.20;;;;;;5096868;28;20503;-74
2021/01/31 08:33:22;;;;;;;15.68;11.02;;;282.20;1920.00;;;;;;5076793;28;20052;-73
2021/01/31 08:35:48;;;;;;;16.73;12.05;;;282.30;1894.40;;;;;;5057333;28;20063;-73
2021/01/31 08:38:20;;;;;;;16.75;11.18;;;282.40;1868.80;;;;;;5093651;28;20105;-73
2021/01/31 08:41:01;;;;;;;19.42;12.57;;;307.30;1868.80;;;;;;5075925;28;20028;-73
2021/01/31 08:43:43;;;;;;;34.38;20.60;;;307.40;1843.20;;;;;;5091473;28;20095;-72
2021/01/31 08:46:10;;;;;;;26.73;20.65;;;307.40;1920.00;;;;;;5072500;28;20028;-79
2021/01/31 08:48:35;;;;;;;40.85;21.65;;;307.30;1894.40;;;;;;5092707;28;20481;-72
2021/01/31 08:51:24;;;;;;;83.78;45.97;;;307.50;1843.20;;;;;;5056213;28;20048;-72
2021/01/31 08:54:19;;;;;;;32.78;19.67;;;307.40;1792.00;;;;;;5076305;28;20021;-74
2021/01/31 08:56:59;;;;;;;31.98;18.65;;;307.80;1740.80;;;;;;5062105;28;20140;-71
2021/01/31 08:59:39;;;;;;;44.73;27.33;;;308.10;1689.60;;;;;;5058769;28;20078;-73
2021/01/31 09:02:21;;;;;;;63.50;36.58;;;333.00;1715.20;;;;;;5077072;28;20024;-70
2021/01/31 09:04:48;;;;;;;64.93;39.83;;;333.30;1689.60;;;;;;5086191;28;20016;-71
2021/01/31 09:07:23;;;;;;;145.13;67.13;;;333.40;1689.60;;;;;;5073755;28;20029;-74
2021/01/31 09:09:58;;;;;;;59.40;33.42;;;333.40;1638.40;;;;;;5072724;28;20028;-72
2021/01/31 09:12:24;;;;;;;56.92;31.63;;;358.40;1587.20;;;;;;5069965;28;20032;-73
2021/01/31 09:14:50;;;;;;;29.17;18.65;;;358.50;1587.20;;;;;;5092010;28;20035;-72
2021/01/31 09:17:24;;;;;;;20.30;13.27;;;358.70;1536.00;;;;;;5092057;28;20549;-73
2021/01/31 09:19:50;;;;;;;17.40;11.65;;;358.70;1536.00;;;;;;5092566;28;20027;-70
2021/01/31 09:22:22;;;;;;;16.88;12.20;;;358.80;1536.00;;;;;;5071952;28;20034;-72
2021/01/31 09:24:56;;;;;;;18.77;12.23;;;359.20;1510.40;;;;;;5072669;28;20020;-76
2021/01/31 09:27:27;;;;;;;24.45;21.05;;;384.60;1459.20;;;;;;5062030;28;20035;-71
2021/01/31 09:30:05;;;;;;;26.00;16.08;;;435.20;1408.00;;;;;;5089597;28;20029;-71
2021/01/31 09:32:46;;;;;;;23.23;14.15;;;486.80;1254.40;;;;;;5073740;28;20039;-73
2021/01/31 09:35:17;;;;;;;16.42;11.50;;;563.30;1126.40;;;;;;5045141;28;20034;-74
2021/01/31 09:37:43;;;;;;;14.02;9.13;;;589.40;1024.00;;;;;;5045448;28;20090;-73
2021/01/31 09:40:09;;;;;;;14.18;9.27;;;589.70;998.40;;;;;;5081019;28;20020;-73
2021/01/31 09:42:36;;;;;;;12.50;6.82;;;589.00;1024.00;;;;;;5070397;28;20035;-73
2021/01/31 09:45:07;;;;;;;62.63;27.15;;;512.90;1100.80;;;;;;5080750;28;20020;-71
2021/01/31 09:47:33;;;;;;;34.15;16.83;;;486.90;1152.00;;;;;;5066878;28;20029;-71
2021/01/31 09:50:05;;;;;;;12.90;9.02;;;436.10;1254.40;;;;;;5050011;28;20023;-74
2021/01/31 09:52:30;;;;;;;9.80;6.45;;;410.20;1408.00;;;;;;5071845;28;20031;-69
2021/01/31 09:54:56;;;;;;;8.70;5.18;;;409.70;1433.60;;;;;;5070741;28;20389;-72
2021/01/31 09:57:24;;;;;;;8.65;5.40;;;384.80;1408.00;;;;;;5091443;28;20173;-70
2021/01/31 10:00:08;;;;;;;10.98;6.85;;;384.30;1433.60;;;;;;5066148;28;20396;-69
2021/01/31 10:02:36;;;;;;;12.02;7.97;;;359.20;1459.20;;;;;;5071190;28;20024;-71
2021/01/31 10:05:08;;;;;;;9.32;6.13;;;358.90;1459.20;;;;;;5088038;28;20486;-71
2021/01/31 10:08:01;;;;;;;10.38;5.80;;;358.50;1382.40;;;;;;5088880;28;20028;-73
2021/01/31 10:10:42;;;;;;;12.85;7.97;;;358.50;1433.60;;;;;;5068782;28;20043;-70
2021/01/31 10:13:23;;;;;;;13.25;7.57;;;358.40;1433.60;;;;;;5089884;28;20024;-70
2021/01/31 10:15:57;;;;;;;11.95;5.88;;;333.70;1433.60;;;;;;5087351;28;20380;-71
2021/01/31 10:18:30;;;;;;;23.65;12.35;;;333.50;1433.60;;;;;;5088872;28;20096;-70
2021/01/31 10:21:13;;;;;;;16.10;9.65;;;333.40;1433.60;;;;;;5082625;28;20028;-70
2021/01/31 10:23:38;;;;;;;11.80;7.20;;;333.40;1459.20;;;;;;5069549;28;20776;-72
2021/01/31 10:26:05;;;;;;;21.88;11.43;;;333.20;1459.20;;;;;;5081231;28;20028;-72
2021/01/31 10:28:33;;;;;;;14.68;7.82;;;333.00;1510.40;;;;;;5069562;28;20582;-72
2021/01/31 10:30:58;;;;;;;19.50;10.05;;;332.80;1510.40;;;;;;5075798;28;20080;-71
2021/01/31 10:33:48;;;;;;;19.92;10.02;;;308.10;1510.40;;;;;;5080324;28;20472;-76
2021/01/31 10:36:28;;;;;;;10.52;6.20;;;308.00;1510.40;;;;;;5078000;28;20086;-69
2021/01/31 10:39:25;;;;;;;11.65;7.03;;;307.90;1510.40;;;;;;5078754;28;20353;-70
2021/01/31 10:41:51;;;;;;;11.15;6.60;;;307.80;1510.40;;;;;;5058751;28;20734;-69
2021/01/31 10:44:25;;;;;;;14.30;7.85;;;307.80;1510.40;;;;;;5085414;28;20022;-69
2021/01/31 10:47:13;;;;;;;38.28;17.23;;;307.70;1510.40;;;;;;5081246;28;20545;-71
2021/01/31 10:49:40;;;;;;;24.45;10.13;;;307.70;1510.40;;;;;;5080396;28;20040;-71
2021/01/31 10:52:09;;;;;;;19.15;10.93;;;307.70;1510.40;;;;;;5078968;28;20029;-73
2021/01/31 10:54:34;;;;;;;20.98;12.45;;;307.70;1536.00;;;;;;5077720;28;20060;-72
2021/01/31 10:57:00;;;;;;;18.08;11.27;;;307.70;1536.00;;;;;;5069770;28;20060;-70
2021/01/31 10:59:26;;;;;;;15.20;8.82;;;307.70;1536.00;;;;;;5071483;28;20119;-69
2021/01/31 11:01:52;;;;;;;12.77;6.65;;;307.80;1510.40;;;;;;5081723;28;20023;-70
2021/01/31 11:04:18;;;;;;;14.20;9.13;;;307.90;1510.40;;;;;;5079416;28;20278;-69
2021/01/31 11:06:44;;;;;;;14.63;7.97;;;308.00;1484.80;;;;;;5065271;28;20502;-71
2021/01/31 11:09:10;;;;;;;24.67;17.17;;;308.10;1459.20;;;;;;5074569;28;20016;-70
2021/01/31 11:11:37;;;;;;;26.25;14.63;;;308.10;1459.20;;;;;;5090931;28;20503;-72
2021/01/31 11:14:03;;;;;;;12.40;8.10;;;308.10;1459.20;;;;;;5079022;28;20281;-71
2021/01/31 11:16:30;;;;;;;17.98;10.40;;;308.10;1459.20;;;;;;5090915;28;20480;-71
2021/01/31 11:18:55;;;;;;;9.85;6.45;;;308.10;1433.60;;;;;;5083829;28;20035;-71
2021/01/31 11:21:23;;;;;;;16.23;10.00;;;308.10;1459.20;;;;;;5089827;28;20042;-70
2021/01/31 11:23:49;;;;;;;27.95;13.52;;;332.80;1484.80;;;;;;5073632;28;20020;-70
2021/01/31 11:26:15;;;;;;;15.82;7.90;;;332.80;1510.40;;;;;;5090909;28;20032;-71
2021/01/31 11:28:41;;;;;;;14.02;7.43;;;308.10;1459.20;;;;;;5092239;28;20020;-71
2021/01/31 11:31:07;;;;;;;18.55;9.85;;;308.10;1459.20;;;;;;5094658;28;20028;-70
2021/01/31 11:33:33;;;;;;;10.00;5.93;;;308.10;1484.80;;;;;;5094756;28;20377;-71
2021/01/31 11:35:59;;;;;;;18.95;9.23;;;308.10;1459.20;;;;;;5076567;28;20111;-70
2021/01/31 11:38:25;;;;;;;11.43;6.35;;;308.10;1459.20;;;;;;5093879;28;20089;-78
2021/01/31 11:40:51;;;;;;;17.50;9.20;;;308.10;1484.80;;;;;;5092882;28;20480;-70
2021/01/31 11:43:16;;;;;;;27.08;12.77;;;308.10;1433.60;;;;;;5076118;28;20027;-70
2021/01/31 11:45:42;;;;;;;22.95;12.05;;;332.80;1459.20;;;;;;5079408;28;20027;-70
2021/01/31 11:48:07;;;;;;;25.15;13.27;;;332.80;1459.20;;;;;;5076012;28;20040;-70
2021/01/31 11:50:33;;;;;;;27.00;13.20;;;332.80;1433.60;;;;;;5073802;28;20110;-69
2021/01/31 11:52:59;;;;;;;33.08;17.02;;;332.90;1433.60;;;;;;5073252;28;20032;-73
2021/01/31 11:55:24;;;;;;;31.77;17.00;;;332.90;1433.60;;;;;;5077719;28;20020;-71
2021/01/31 11:57:50;;;;;;;41.78;19.40;;;332.90;1433.60;;;;;;5074665;28;20044;-71
2021/01/31 12:00:19;;;;;;;28.33;15.25;;;332.90;1433.60;;;;;;5085453;28;20365;-71
2021/01/31 12:02:45;;;;;;;21.65;10.90;;;332.90;1408.00;;;;;;5069863;28;20182;-70
2021/01/31 12:05:13;;;;;;;33.28;17.60;;;333.00;1382.40;;;;;;5093447;28;20129;-70
2021/01/31 12:07:39;;;;;;;27.50;15.95;;;333.10;1382.40;;;;;;5091649;28;20406;-69
2021/01/31 12:10:09;;;;;;;15.40;9.07;;;333.10;1382.40;;;;;;5074894;28;21278;-71
2021/01/31 12:12:35;;;;;;;17.42;10.70;;;333.10;1382.40;;;;;;5078536;28;20089;-72
2021/01/31 12:15:00;;;;;;;14.02;8.25;;;333.10;1382.40;;;;;;5077032;28;20040;-68
2021/01/31 12:17:35;;;;;;;9.98;5.45;;;333.10;1356.80;;;;;;5087394;28;20024;-70
2021/01/31 12:20:01;;;;;;;10.63;6.55;;;333.10;1356.80;;;;;;5091038;28;20024;-71
2021/01/31 12:22:26;;;;;;;15.30;8.80;;;333.00;1331.20;;;;;;5085547;28;20035;-67
2021/01/31 12:24:52;;;;;;;13.95;7.78;;;333.00;1382.40;;;;;;5087811;28;20016;-71
2021/01/31 12:27:19;;;;;;;16.58;9.80;;;333.00;1382.40;;;;;;5052580;28;20477;-72
2021/01/31 12:29:45;;;;;;;15.60;9.48;;;332.90;1356.80;;;;;;5080709;28;20028;-70
2021/01/31 12:32:11;;;;;;;16.58;9.48;;;332.90;1356.80;;;;;;5079420;28;20510;-72